This demonstration page uses our WeatherBlox Daily Observations layout. Learn more.

41.55636, -103.73856

Hourly Observations for August 31, 2019

Temp ( °F °C ) Dew Point ( °F °C ) Humidity (%) Winds ( mph kmh ) Pressure ( in mb ) Visibility ( mi km ) Precip ( " mm )
12:58 am 00:58 Mostly Cloudy 63 17.1 62 16.6 97 97 S 12 19 30.03 1017 9 14.484096 0 0
1:58 am 01:58 Mostly Cloudy with Mist and Fog 61 16.3 61 16 98 98 S 9 15 30.03 1017 5 8.04672 0 0
2:58 am 02:58 Mostly Cloudy 61 16.3 60 15.8 97 97 SSW 8 13 30 1016 9 14.484096 0 0
3:58 am 03:58 Mostly Cloudy 60 15.8 59 15.2 96 96 SW 6 9 30 1016 8 12.874752 0 0
4:58 am 04:58 Mostly Clear with Mist and Fog 60 15.3 59 15 98 98 SW 8 13 30 1016 5 8.04672 0 0
5:58 am 05:58 Mostly Clear with Mist and Fog 57 13.8 57 13.7 99 99 S 3 6 30.03 1017 1.5 2.414016 0 0
6:58 am 06:58 Mostly Cloudy with Fog 56 13.3 56 13.2 99 99 S 5 7 30.06 1018 1 1.609344 0 0
7:58 am 07:58 Mostly Sunny 60 15.5 60 15.5 100 100 SW 7 11 30.03 1017 7 11.265408 0 0
8:58 am 08:58 Sunny 65 18.1 61 16.2 89 89 Calm 30.06 1018 10 16.09344 0 0
9:58 am 09:58 Sunny 69 20.4 61 16.2 77 77 Calm 30.03 1017 10 16.09344 0 0
10:58 am 10:58 Sunny 73 22.6 62 16.8 70 70 NE 3 6 30.03 1017 10 16.09344 0 0
11:58 am 11:58 Sunny 75 23.9 59 15 58 58 ENE 3 6 30.03 1017 10 16.09344 0 0
12:58 pm 12:58 Sunny 76 24.7 62 16.5 60 60 ENE 3 6 30.03 1017 10 16.09344 0 0
1:58 pm 13:58 Sunny 79 26 59 14.8 50 50 ENE 7 11 30.03 1017 10 16.09344 0 0
2:58 pm 14:58 Sunny 80 26.6 56 13.2 44 44 NE 6 9 30 1016 10 16.09344 0 0
3:58 pm 15:58 Sunny 80 26.5 59 15.2 50 50 E 7 11 29.97 1015 10 16.09344 0 0
4:58 pm 16:58 Sunny 79 26 60 15.5 52 52 ESE 12 19 29.97 1015 10 16.09344 0 0
6:58 pm 18:58 Sunny 73 22.7 60 15.4 64 64 SE 6 9 30.03 1017 10 16.09344 0 0
7:58 pm 19:58 Clear 67 19.3 61 16 81 81 ESE 7 11 30.03 1017 10 16.09344 0 0
8:58 pm 20:58 Clear 64 18 61 16 88 88 ESE 8 13 30.03 1017 10 16.09344 0 0
9:58 pm 21:58 Clear 65 18.4 63 17 92 92 SE 9 15 30.03 1017 10 16.09344 0 0
10:58 pm 22:58 Clear 63 17.4 62 16.4 94 94 SSE 8 13 30.03 1017 10 16.09344 0 0
11:58 pm 23:58 Clear 63 17.4 62 16.4 94 94 SSE 9 15 30.03 1017 10 16.09344 0 0

Powered by AerisWeather